createdAt,value
2023-11-24T00:02:44.634Z,18.02
2023-11-24T00:05:30.355Z,17.85
2023-11-24T00:08:16.360Z,22.98
2023-11-24T00:11:04.565Z,17.58
2023-11-24T00:13:52.740Z,18.00
2023-11-24T00:16:41.930Z,14.50
2023-11-24T00:19:35.851Z,15.00
2023-11-24T00:22:20.977Z,12.88
2023-11-24T00:25:07.721Z,9.00
2023-11-24T00:27:55.837Z,10.70
2023-11-24T00:30:41.434Z,11.07
2023-11-24T00:33:29.602Z,8.73
2023-11-24T00:36:20.150Z,11.93
2023-11-24T00:39:05.652Z,10.10
2023-11-24T00:41:51.252Z,15.07
2023-11-24T00:44:37.107Z,11.90
2023-11-24T00:47:26.233Z,20.17
2023-11-24T00:50:12.059Z,20.02
2023-11-24T00:52:58.360Z,17.05
2023-11-24T00:55:43.791Z,15.38
2023-11-24T00:58:29.380Z,15.98
2023-11-24T01:01:14.813Z,18.25
2023-11-24T01:04:05.074Z,13.82
2023-11-24T01:06:50.882Z,17.30
2023-11-24T01:09:36.718Z,18.85
2023-11-24T01:12:22.945Z,16.08
2023-11-24T01:15:09.938Z,11.88
2023-11-24T01:17:55.999Z,13.80
2023-11-24T01:20:46.780Z,11.85
2023-11-24T01:23:32.504Z,12.93
2023-11-24T01:26:18.102Z,16.17
2023-11-24T01:29:03.757Z,11.65
2023-11-24T01:31:49.309Z,15.80
2023-11-24T01:34:37.467Z,16.45
2023-11-24T01:37:23.169Z,22.92
2023-11-24T01:40:10.765Z,19.00
2023-11-24T01:42:58.713Z,10.52
2023-11-24T01:45:49.458Z,11.52
2023-11-24T01:48:34.946Z,6.90
2023-11-24T01:51:21.791Z,10.82
2023-11-24T01:54:08.448Z,8.85
2023-11-24T01:56:58.841Z,10.35
2023-11-24T01:59:44.746Z,10.80
2023-11-24T02:02:31.520Z,8.60
2023-11-24T02:05:23.494Z,9.85
2023-11-24T02:08:09.326Z,15.85
2023-11-24T02:10:56.071Z,10.27
2023-11-24T02:13:41.693Z,15.02
2023-11-24T02:16:27.392Z,9.48
2023-11-24T02:19:15.385Z,7.50
2023-11-24T02:22:00.672Z,11.23
2023-11-24T02:24:46.109Z,9.85
2023-11-24T02:27:31.715Z,7.95
2023-11-24T02:30:17.235Z,10.07
2023-11-24T02:33:02.609Z,12.40
2023-11-24T02:35:48.217Z,9.10
2023-11-24T02:38:34.175Z,11.25
2023-11-24T02:41:20.245Z,11.57
2023-11-24T02:44:06.791Z,13.50
2023-11-24T02:46:54.162Z,21.42
2023-11-24T02:49:40.553Z,11.10
2023-11-24T02:52:25.882Z,17.13
2023-11-24T02:55:12.620Z,13.27
2023-11-24T02:57:58.219Z,16.05
2023-11-24T03:00:44.738Z,10.82
2023-11-24T03:03:30.479Z,9.38
2023-11-24T03:06:15.750Z,9.65
2023-11-24T03:09:07.204Z,7.72
2023-11-24T03:11:54.368Z,14.80
2023-11-24T03:14:47.083Z,12.50
2023-11-24T03:17:33.065Z,11.80
2023-11-24T03:20:18.230Z,7.07
2023-11-24T03:23:04.149Z,9.30
2023-11-24T03:25:54.841Z,10.30
2023-11-24T03:28:41.395Z,15.32
2023-11-24T03:31:27.037Z,8.98
2023-11-24T03:34:12.290Z,11.30
2023-11-24T03:36:57.757Z,15.95
2023-11-24T03:39:43.879Z,11.02
2023-11-24T03:42:32.628Z,12.23
2023-11-24T03:45:18.294Z,17.20
2023-11-24T03:48:07.944Z,14.23
2023-11-24T03:50:53.689Z,13.85
2023-11-24T03:53:38.898Z,12.65
2023-11-24T03:56:25.273Z,10.00
2023-11-24T03:59:11.152Z,18.75
2023-11-24T04:01:56.697Z,17.80
2023-11-24T04:04:47.742Z,12.18
2023-11-24T04:07:35.153Z,9.15
2023-11-24T04:10:21.539Z,9.30
2023-11-24T04:13:06.838Z,11.40
2023-11-24T04:15:52.369Z,12.57
2023-11-24T04:18:38.182Z,8.73
2023-11-24T04:21:23.718Z,14.60
2023-11-24T04:24:10.253Z,11.30
2023-11-24T04:26:55.768Z,10.18
2023-11-24T04:29:41.213Z,9.70
2023-11-24T04:32:26.931Z,15.45
2023-11-24T04:35:12.374Z,19.80
2023-11-24T04:37:58.412Z,17.90
2023-11-24T04:40:44.565Z,11.10
2023-11-24T04:43:30.462Z,9.18
2023-11-24T04:46:16.462Z,18.73
2023-11-24T04:49:05.058Z,18.05
2023-11-24T04:51:51.566Z,13.63
2023-11-24T04:54:37.319Z,18.25
2023-11-24T04:57:22.698Z,16.65
2023-11-24T05:00:09.215Z,10.85
2023-11-24T05:02:54.837Z,22.98
2023-11-24T05:05:42.881Z,15.57
2023-11-24T05:08:31.214Z,12.32
2023-11-24T05:11:18.258Z,7.43
2023-11-24T05:14:03.749Z,10.95
2023-11-24T05:16:50.828Z,13.05
2023-11-24T05:19:36.287Z,5.82
2023-11-24T05:22:21.833Z,7.50
2023-11-24T05:25:08.802Z,7.18
2023-11-24T05:27:54.328Z,7.53
2023-11-24T05:30:39.414Z,7.78
2023-11-24T05:33:25.030Z,11.38
2023-11-24T05:36:11.154Z,10.18
2023-11-24T05:38:57.379Z,5.57
2023-11-24T05:41:45.721Z,14.50
2023-11-24T05:44:37.044Z,8.18
2023-11-24T05:47:22.524Z,13.35
2023-11-24T05:50:08.847Z,13.82
2023-11-24T05:52:57.559Z,13.35
2023-11-24T05:55:42.811Z,12.48
2023-11-24T05:58:28.567Z,12.15
2023-11-24T06:01:16.690Z,10.93
2023-11-24T06:04:04.305Z,11.80
2023-11-24T06:06:50.635Z,13.30
2023-11-24T06:09:36.582Z,6.93
2023-11-24T06:12:21.866Z,10.32
2023-11-24T06:15:10.618Z,9.23
2023-11-24T06:17:56.154Z,12.30
2023-11-24T06:20:42.098Z,6.82
2023-11-24T06:23:27.852Z,11.20
2023-11-24T06:26:14.333Z,9.48
2023-11-24T06:28:59.776Z,10.70
2023-11-24T06:31:48.549Z,9.20
2023-11-24T06:34:34.127Z,17.05
2023-11-24T06:37:19.831Z,11.48
2023-11-24T06:40:07.346Z,14.57
2023-11-24T06:42:52.710Z,12.45
2023-11-24T06:45:38.470Z,12.25
2023-11-24T06:48:24.669Z,13.23
2023-11-24T06:51:10.281Z,15.88
2023-11-24T06:53:55.760Z,12.68
2023-11-24T06:56:41.650Z,17.90
2023-11-24T06:59:29.997Z,15.60
2023-11-24T07:02:15.567Z,8.93
2023-11-24T07:05:01.077Z,18.20
2023-11-24T07:07:46.590Z,7.10
2023-11-24T07:10:32.453Z,9.05
2023-11-24T07:13:18.057Z,10.38
2023-11-24T07:16:05.625Z,10.25
2023-11-24T07:18:53.952Z,9.52
2023-11-24T07:21:41.994Z,15.27
2023-11-24T07:24:30.368Z,11.50
2023-11-24T07:27:15.934Z,6.25
2023-11-24T07:30:01.372Z,9.90
2023-11-24T07:32:46.895Z,12.77
2023-11-24T07:35:32.525Z,9.63
2023-11-24T07:38:18.585Z,16.70
2023-11-24T07:41:08.504Z,8.57
2023-11-24T07:43:54.054Z,14.55
2023-11-24T07:46:41.909Z,15.45
2023-11-24T07:49:30.632Z,9.13
2023-11-24T07:52:16.495Z,10.38
2023-11-24T07:55:01.974Z,14.40
2023-11-24T07:57:48.457Z,6.28
2023-11-24T08:00:33.984Z,19.08
2023-11-24T08:03:20.256Z,10.15
2023-11-24T08:06:09.576Z,10.60
2023-11-24T08:08:57.315Z,10.20
2023-11-24T08:11:48.031Z,11.38
2023-11-24T08:14:33.640Z,11.55
2023-11-24T08:17:19.396Z,13.75
2023-11-24T08:20:11.575Z,14.13
2023-11-24T08:22:57.278Z,13.18
2023-11-24T08:25:43.082Z,9.00
2023-11-24T08:28:28.510Z,11.40
2023-11-24T08:31:20.892Z,16.08
2023-11-24T08:34:06.744Z,17.02
2023-11-24T08:36:52.424Z,15.40
2023-11-24T08:39:39.005Z,13.38
2023-11-24T08:42:24.846Z,12.70
2023-11-24T08:45:10.637Z,14.13
2023-11-24T08:47:56.570Z,10.55
2023-11-24T08:50:41.813Z,15.05
2023-11-24T08:53:28.697Z,10.82
2023-11-24T08:56:14.286Z,10.77
2023-11-24T08:59:00.062Z,8.98
2023-11-24T09:01:50.922Z,5.78
2023-11-24T09:04:36.623Z,6.32
2023-11-24T09:07:22.200Z,5.50
2023-11-24T09:10:10.190Z,7.07
2023-11-24T09:12:55.973Z,8.02
2023-11-24T09:15:44.866Z,10.05
2023-11-24T09:18:31.064Z,8.23
2023-11-24T09:21:19.209Z,10.48
2023-11-24T09:24:06.156Z,4.07
2023-11-24T09:26:52.087Z,12.20
2023-11-24T09:29:37.757Z,12.77
2023-11-24T09:32:23.078Z,13.90
2023-11-24T09:35:10.573Z,14.07
2023-11-24T09:37:56.264Z,14.30
2023-11-24T09:40:41.975Z,12.63
2023-11-24T09:43:27.620Z,10.88
2023-11-24T09:46:13.603Z,14.35
2023-11-24T09:48:59.995Z,12.93
2023-11-24T09:51:45.813Z,12.93
2023-11-24T09:54:32.442Z,9.18
2023-11-24T09:57:21.788Z,12.10
2023-11-24T10:00:09.421Z,16.02
2023-11-24T10:02:59.886Z,8.90
2023-11-24T10:05:45.705Z,8.85
2023-11-24T10:08:51.610Z,9.18
2023-11-24T10:11:39.768Z,10.32
2023-11-24T10:14:25.234Z,10.63
2023-11-24T10:17:13.978Z,12.40
2023-11-24T10:19:59.793Z,7.57
2023-11-24T10:22:50.757Z,10.75
2023-11-24T10:25:36.756Z,10.50
2023-11-24T10:28:24.628Z,4.75
2023-11-24T10:31:10.197Z,7.80
2023-11-24T10:34:00.074Z,6.75
2023-11-24T10:36:46.885Z,5.90
2023-11-24T10:39:34.161Z,9.05
2023-11-24T10:42:22.156Z,6.57
2023-11-24T10:45:12.473Z,11.27
2023-11-24T10:48:16.122Z,12.48
2023-11-24T10:51:07.951Z,13.57
2023-11-24T10:53:58.128Z,6.97
2023-11-24T10:56:45.034Z,8.63
2023-11-24T10:59:35.859Z,6.95
2023-11-24T11:02:22.575Z,4.60
2023-11-24T11:05:30.898Z,5.40
2023-11-24T11:08:36.881Z,7.78
2023-11-24T11:14:31.429Z,9.27
2023-11-24T11:17:20.671Z,12.02
2023-11-24T11:20:13.939Z,12.60
2023-11-24T11:23:00.900Z,13.93
2023-11-24T11:25:53.484Z,15.25
2023-11-24T11:28:58.562Z,18.45
2023-11-24T11:31:51.513Z,20.38
2023-11-24T11:34:38.306Z,14.68
2023-11-24T11:37:30.156Z,9.35
2023-11-24T11:40:20.706Z,9.68
2023-11-24T11:43:11.361Z,15.43
2023-11-24T11:46:01.214Z,9.18
2023-11-24T11:48:47.871Z,10.77
2023-11-24T11:51:34.560Z,10.40
2023-11-24T11:54:25.941Z,17.13
2023-11-24T11:57:12.359Z,10.25
2023-11-24T11:59:58.151Z,14.32
2023-11-24T12:02:46.601Z,13.52
2023-11-24T12:05:33.668Z,12.25
2023-11-24T12:08:19.494Z,11.27
2023-11-24T12:11:06.019Z,11.82
2023-11-24T12:13:52.815Z,9.55
2023-11-24T12:16:38.360Z,17.10
2023-11-24T12:19:30.483Z,16.73
2023-11-24T12:22:20.115Z,15.32
2023-11-24T12:25:16.943Z,15.48
2023-11-24T12:28:09.030Z,16.27
2023-11-24T12:31:02.693Z,17.30
2023-11-24T12:33:51.535Z,17.15
2023-11-24T12:36:39.535Z,14.13
2023-11-24T12:39:35.753Z,15.52
2023-11-24T12:42:24.026Z,20.08
2023-11-24T12:45:12.292Z,17.00
2023-11-24T12:48:07.082Z,16.95
2023-11-24T12:50:59.946Z,20.92
2023-11-24T12:53:46.835Z,26.17
2023-11-24T12:56:31.986Z,17.00
2023-11-24T12:59:17.527Z,17.75
2023-11-24T13:02:04.541Z,21.10
2023-11-24T13:04:57.057Z,24.33
2023-11-24T13:07:42.852Z,17.90
2023-11-24T13:10:31.478Z,18.27
2023-11-24T13:13:17.328Z,12.77
2023-11-24T13:16:05.283Z,15.50
2023-11-24T13:18:51.091Z,16.63
2023-11-24T13:21:36.630Z,16.88
2023-11-24T13:24:21.765Z,17.58
2023-11-24T13:27:07.450Z,16.02
2023-11-24T13:29:53.002Z,13.98
2023-11-24T13:32:42.805Z,10.07
2023-11-24T13:35:28.145Z,13.10
2023-11-24T13:38:18.049Z,13.15
2023-11-24T13:41:04.732Z,7.82
2023-11-24T13:43:50.305Z,11.95
2023-11-24T13:46:39.852Z,17.08
2023-11-24T13:49:25.525Z,13.02
2023-11-24T13:52:27.000Z,15.00
2023-11-24T13:55:15.020Z,12.82
2023-11-24T13:58:01.923Z,7.55
2023-11-24T14:00:47.479Z,3.38
2023-11-24T14:03:33.157Z,4.05
2023-11-24T14:06:23.387Z,3.22
2023-11-24T14:09:24.924Z,10.57
2023-11-24T14:12:16.456Z,10.25
2023-11-24T14:15:04.714Z,12.07
2023-11-24T14:17:50.178Z,14.35
2023-11-24T14:20:37.877Z,18.63
2023-11-24T14:23:23.608Z,20.75
2023-11-24T14:26:09.768Z,16.40
2023-11-24T14:28:55.617Z,14.45
2023-11-24T14:31:43.706Z,14.73
2023-11-24T14:34:31.841Z,17.10
2023-11-24T14:37:18.898Z,10.20
2023-11-24T14:40:21.279Z,15.88
2023-11-24T14:43:08.889Z,9.35
2023-11-24T14:45:55.442Z,9.27
2023-11-24T14:48:42.701Z,6.07
2023-11-24T14:51:29.742Z,14.05
2023-11-24T14:54:17.274Z,15.93
2023-11-24T14:57:03.286Z,12.38
2023-11-24T14:59:57.923Z,6.38
2023-11-24T15:02:43.588Z,8.00
2023-11-24T15:05:31.593Z,7.25
2023-11-24T15:08:18.783Z,5.13
2023-11-24T15:11:07.380Z,8.88
2023-11-24T15:13:55.687Z,8.43
2023-11-24T15:16:52.231Z,7.85
2023-11-24T15:19:42.496Z,12.35
2023-11-24T15:22:29.856Z,8.35
2023-11-24T15:25:19.063Z,11.63
2023-11-24T15:28:13.000Z,7.75
2023-11-24T15:30:58.916Z,5.70
2023-11-24T15:33:48.441Z,9.15
2023-11-24T15:36:37.057Z,10.50
2023-11-24T15:39:41.341Z,11.25
2023-11-24T15:42:30.332Z,10.77
2023-11-24T15:45:16.277Z,12.27
2023-11-24T15:48:07.756Z,17.35
2023-11-24T15:50:54.400Z,20.33
2023-11-24T15:53:40.233Z,13.55
2023-11-24T15:56:28.428Z,14.43
2023-11-24T15:59:23.702Z,10.05
2023-11-24T16:02:12.417Z,6.55
2023-11-24T16:04:59.332Z,11.07
2023-11-24T16:07:47.173Z,13.18
2023-11-24T16:10:45.816Z,10.23
2023-11-24T16:13:35.333Z,8.90
2023-11-24T16:16:21.473Z,11.35
2023-11-24T16:19:08.823Z,12.38
2023-11-24T16:21:54.416Z,15.38
2023-11-24T16:24:43.763Z,13.43
2023-11-24T16:27:34.020Z,13.77
2023-11-24T16:30:22.124Z,14.35
2023-11-24T16:33:08.318Z,15.25
2023-11-24T16:35:58.648Z,18.77
2023-11-24T16:38:45.032Z,7.90
2023-11-24T16:41:31.907Z,12.13
2023-11-24T16:44:20.113Z,7.18
2023-11-24T16:47:08.070Z,6.70
2023-11-24T16:49:53.880Z,8.95
2023-11-24T16:52:44.054Z,8.75
2023-11-24T16:55:31.713Z,7.20
2023-11-24T16:58:23.762Z,10.98
2023-11-24T17:01:14.858Z,6.90
2023-11-24T17:04:02.238Z,11.95
2023-11-24T17:06:52.295Z,8.48
2023-11-24T17:09:40.198Z,16.50
2023-11-24T17:12:31.292Z,16.10
2023-11-24T17:15:16.919Z,20.27
2023-11-24T17:18:02.650Z,12.57
2023-11-24T17:20:49.221Z,10.93
2023-11-24T17:23:42.343Z,13.23
2023-11-24T17:26:33.369Z,9.75
2023-11-24T17:29:19.693Z,15.25
2023-11-24T17:32:07.277Z,15.02
2023-11-24T17:34:53.247Z,15.55
2023-11-24T17:37:39.331Z,14.70
2023-11-24T17:40:28.831Z,16.33
2023-11-24T17:43:14.715Z,12.88
2023-11-24T17:46:06.677Z,20.15
2023-11-24T17:48:52.528Z,23.23
2023-11-24T17:51:38.626Z,23.33
2023-11-24T17:54:27.446Z,17.10
2023-11-24T17:57:16.976Z,17.42
2023-11-24T18:00:05.318Z,24.55
2023-11-24T18:02:51.280Z,14.63
2023-11-24T18:05:37.215Z,17.67
2023-11-24T18:08:23.640Z,23.38
2023-11-24T18:11:12.671Z,13.07
2023-11-24T18:14:00.454Z,20.65
2023-11-24T18:16:48.815Z,14.05
2023-11-24T18:19:36.901Z,17.88
2023-11-24T18:22:24.534Z,15.73
2023-11-24T18:25:13.443Z,19.52
2023-11-24T18:27:58.974Z,21.65
2023-11-24T18:30:46.684Z,22.75
2023-11-24T18:33:32.436Z,27.00
2023-11-24T18:36:17.813Z,18.75
2023-11-24T18:39:07.386Z,27.30
2023-11-24T18:41:53.989Z,18.98
2023-11-24T18:44:40.946Z,14.10
2023-11-24T18:47:29.386Z,14.60
2023-11-24T18:50:15.913Z,15.85
2023-11-24T18:53:03.899Z,18.20
2023-11-24T18:55:49.581Z,11.27
2023-11-24T18:58:38.131Z,15.27
2023-11-24T19:01:24.030Z,18.48
2023-11-24T19:04:19.490Z,20.90
2023-11-24T19:07:05.085Z,27.88
2023-11-24T19:09:52.737Z,22.40
2023-11-24T19:12:39.443Z,19.75
2023-11-24T19:15:25.334Z,12.25
2023-11-24T19:18:11.610Z,5.30
2023-11-24T19:20:57.101Z,8.10
2023-11-24T19:23:42.669Z,11.70
2023-11-24T19:26:32.815Z,8.95
2023-11-24T19:29:18.205Z,14.00
2023-11-24T19:32:04.538Z,9.65
2023-11-24T19:34:50.113Z,17.05
2023-11-24T19:37:35.744Z,19.17
2023-11-24T19:40:21.592Z,8.60
2023-11-24T19:43:09.070Z,7.82
2023-11-24T19:45:54.832Z,21.45
2023-11-24T19:48:43.763Z,16.50
2023-11-24T19:51:29.481Z,14.88
2023-11-24T19:54:14.915Z,15.70
2023-11-24T19:57:00.965Z,13.80
2023-11-24T19:59:46.718Z,18.35
2023-11-24T20:02:32.334Z,24.25
2023-11-24T20:05:17.867Z,21.27
2023-11-24T20:08:03.859Z,21.60
2023-11-24T20:10:49.590Z,17.50
2023-11-24T20:13:37.978Z,16.73
2023-11-24T20:16:23.778Z,18.42
2023-11-24T20:19:09.360Z,21.02
2023-11-24T20:21:56.059Z,12.82
2023-11-24T20:24:43.614Z,15.57
2023-11-24T20:27:29.106Z,15.00
2023-11-24T20:30:15.830Z,15.32
2023-11-24T20:33:02.460Z,13.18
2023-11-24T20:35:48.445Z,11.02
2023-11-24T20:38:33.949Z,15.50
2023-11-24T20:41:19.933Z,16.80
2023-11-24T20:44:12.323Z,16.75
2023-11-24T20:46:57.879Z,11.95
2023-11-24T20:49:49.372Z,14.43
2023-11-24T20:52:41.233Z,17.95
2023-11-24T20:55:27.815Z,19.80
2023-11-24T20:58:13.108Z,15.05
2023-11-24T21:00:58.678Z,13.07
2023-11-24T21:03:44.611Z,19.20
2023-11-24T21:06:30.837Z,17.08
2023-11-24T21:09:16.682Z,18.50
2023-11-24T21:12:02.184Z,26.65
2023-11-24T21:14:47.730Z,23.92
2023-11-24T21:17:33.125Z,23.88
2023-11-24T21:20:20.657Z,19.35
2023-11-24T21:23:06.542Z,21.30
2023-11-24T21:25:51.705Z,23.90
2023-11-24T21:28:41.291Z,19.70
2023-11-24T21:31:28.468Z,17.73
2023-11-24T21:34:15.208Z,17.58
2023-11-24T21:37:01.122Z,23.58
2023-11-24T21:39:47.891Z,20.52
2023-11-24T21:42:34.228Z,17.92
2023-11-24T21:45:20.161Z,11.75
2023-11-24T21:48:06.674Z,12.35
2023-11-24T21:50:53.484Z,7.28
2023-11-24T21:53:43.242Z,11.77
2023-11-24T21:56:31.320Z,9.95
2023-11-24T21:59:16.721Z,12.07
2023-11-24T22:02:02.285Z,10.05
2023-11-24T22:04:48.431Z,11.50
2023-11-24T22:07:34.846Z,13.82
2023-11-24T22:10:20.598Z,11.75
2023-11-24T22:13:06.439Z,8.70
2023-11-24T22:15:51.671Z,10.95
2023-11-24T22:18:44.138Z,12.63
2023-11-24T22:21:29.620Z,19.00
2023-11-24T22:24:15.288Z,19.00
2023-11-24T22:27:07.689Z,13.38
2023-11-24T22:30:01.377Z,19.85
2023-11-24T22:32:50.246Z,23.60
2023-11-24T22:35:38.291Z,15.85
2023-11-24T22:38:23.897Z,20.25
2023-11-24T22:41:20.666Z,24.17
2023-11-24T22:44:08.442Z,27.10
2023-11-24T22:46:57.571Z,23.60
2023-11-24T22:49:43.367Z,23.52
2023-11-24T22:52:29.139Z,24.17
2023-11-24T22:55:16.059Z,15.05
2023-11-24T22:58:01.533Z,15.35
2023-11-24T23:00:47.255Z,14.30
2023-11-24T23:03:32.629Z,12.75
2023-11-24T23:06:18.939Z,20.00
2023-11-24T23:09:08.112Z,12.65
2023-11-24T23:11:53.231Z,11.88
2023-11-24T23:14:42.175Z,13.05
2023-11-24T23:17:27.711Z,9.32
2023-11-24T23:20:15.858Z,10.60
2023-11-24T23:23:01.389Z,21.20
2023-11-24T23:25:47.362Z,9.85
2023-11-24T23:28:33.808Z,17.58
2023-11-24T23:31:19.920Z,13.05
2023-11-24T23:34:06.971Z,10.57
2023-11-24T23:36:59.557Z,11.55
2023-11-24T23:39:45.358Z,9.68
2023-11-24T23:42:33.753Z,10.90
2023-11-24T23:45:20.401Z,10.52
2023-11-24T23:48:07.811Z,9.75
2023-11-24T23:50:55.499Z,11.95
2023-11-24T23:53:41.043Z,6.32
2023-11-24T23:56:26.820Z,8.63
2023-11-24T23:59:13.023Z,8.10
